Time;durP1;ratioP1;P1;durP2;ratioP2;P2;SDS_P1;SDS_P2;PMS_P1;PMS_P2;Temp;Humidity;BMP_temperature;BMP_pressure;BME280_temperature;BME280_humidity;BME280_pressure;Samples;Min_cycle;Max_cycle;Signal;HPM_P1;HPM_P2
2023/09/30 00:00:01;;;;;;;0.00;0.00;;;13.80;85.70;;;;;;5021285;28;20086;-69
2023/09/30 00:02:27;;;;;;;0.00;0.00;;;13.80;85.80;;;;;;5032021;28;20041;-69
2023/09/30 00:04:53;;;;;;;0.00;0.00;;;13.80;85.90;;;;;;5028080;28;20050;-69
2023/09/30 00:07:18;;;;;;;0.00;0.00;;;13.80;86.00;;;;;;5014533;28;20125;-69
2023/09/30 00:09:44;;;;;;;0.00;0.00;;;13.80;86.00;;;;;;5027817;28;20049;-69
2023/09/30 00:12:09;;;;;;;0.00;0.00;;;13.90;86.10;;;;;;5031873;28;20528;-69
2023/09/30 00:14:37;;;;;;;0.00;0.00;;;13.90;86.10;;;;;;5029601;28;20037;-69
2023/09/30 00:17:03;;;;;;;0.00;0.00;;;13.80;86.10;;;;;;5032038;28;20682;-69
2023/09/30 00:19:28;;;;;;;0.00;0.00;;;13.90;86.20;;;;;;5031725;28;20048;-69
2023/09/30 00:21:54;;;;;;;0.00;0.00;;;13.90;86.30;;;;;;5031754;28;20049;-69
2023/09/30 00:24:19;;;;;;;0.00;0.00;;;13.90;86.40;;;;;;5031692;28;20049;-69
2023/09/30 00:26:46;;;;;;;0.15;0.15;;;14.00;86.70;;;;;;5030202;28;20049;-69
2023/09/30 00:29:11;;;;;;;0.00;0.00;;;14.00;86.90;;;;;;5031386;28;20042;-69
2023/09/30 00:31:37;;;;;;;0.10;0.10;;;14.10;87.10;;;;;;5030732;28;20099;-70
2023/09/30 00:34:03;;;;;;;0.00;0.00;;;14.10;87.30;;;;;;5027683;28;20041;-69
2023/09/30 00:36:28;;;;;;;0.00;0.00;;;14.10;87.40;;;;;;5032020;28;20033;-69
2023/09/30 00:38:54;;;;;;;0.00;0.00;;;14.10;87.50;;;;;;5031383;28;20052;-68
2023/09/30 00:41:20;;;;;;;0.00;0.00;;;14.20;87.40;;;;;;5031097;28;20507;-69
2023/09/30 00:43:48;;;;;;;0.00;0.00;;;14.10;87.40;;;;;;5031138;28;20376;-69
2023/09/30 00:46:22;;;;;;;0.10;0.10;;;14.20;87.30;;;;;;5029122;28;20044;-69
2023/09/30 00:48:48;;;;;;;0.00;0.00;;;14.20;87.60;;;;;;5031383;28;20057;-69
2023/09/30 00:51:14;;;;;;;0.00;0.00;;;14.10;87.60;;;;;;5030467;28;20399;-69
2023/09/30 00:53:40;;;;;;;0.00;0.00;;;14.20;87.40;;;;;;5030855;28;20049;-69
2023/09/30 00:56:06;;;;;;;0.00;0.00;;;14.20;87.40;;;;;;5019722;28;20049;-69
2023/09/30 00:58:33;;;;;;;0.32;0.32;;;14.20;87.40;;;;;;5029950;28;20053;-69
2023/09/30 01:00:59;;;;;;;3.95;1.20;;;14.20;87.40;;;;;;5030763;28;20065;-69
2023/09/30 01:03:25;;;;;;;0.00;0.00;;;14.30;87.50;;;;;;5024307;28;20041;-69
2023/09/30 01:05:51;;;;;;;0.00;0.00;;;14.30;87.30;;;;;;5029605;28;20044;-69
2023/09/30 01:08:19;;;;;;;0.30;0.30;;;14.30;87.30;;;;;;5015534;28;20046;-69
2023/09/30 01:10:45;;;;;;;0.00;0.00;;;14.30;87.60;;;;;;5011224;28;20041;-69
2023/09/30 01:13:11;;;;;;;0.00;0.00;;;14.40;87.70;;;;;;5023137;28;20042;-69
2023/09/30 01:15:37;;;;;;;0.00;0.00;;;14.40;87.80;;;;;;5019781;28;20138;-69
2023/09/30 01:18:03;;;;;;;0.00;0.00;;;14.40;88.00;;;;;;5030516;28;20049;-68
2023/09/30 01:20:29;;;;;;;0.00;0.00;;;14.50;87.60;;;;;;5030641;28;20037;-69
2023/09/30 01:22:57;;;;;;;0.00;0.00;;;14.50;87.30;;;;;;5029693;28;20387;-69
2023/09/30 01:25:23;;;;;;;0.00;0.00;;;14.50;87.20;;;;;;5030381;28;20038;-69
2023/09/30 01:27:51;;;;;;;0.00;0.00;;;14.60;87.20;;;;;;5030653;28;20045;-69
2023/09/30 01:30:18;;;;;;;0.00;0.00;;;14.60;86.90;;;;;;5030800;28;20081;-69
2023/09/30 01:32:44;;;;;;;0.00;0.00;;;14.60;86.90;;;;;;5027258;28;20051;-69
2023/09/30 01:35:09;;;;;;;0.55;0.55;;;14.60;87.20;;;;;;5010565;28;20050;-69
2023/09/30 01:37:35;;;;;;;0.25;0.25;;;14.50;87.20;;;;;;5026249;28;20037;-69
2023/09/30 01:40:03;;;;;;;0.00;0.00;;;14.60;87.30;;;;;;5011075;28;20046;-69
2023/09/30 01:42:29;;;;;;;0.00;0.00;;;14.60;87.20;;;;;;5011018;28;20124;-69
2023/09/30 01:44:56;;;;;;;0.00;0.00;;;14.60;87.00;;;;;;5014427;28;20128;-69
2023/09/30 01:47:22;;;;;;;0.00;0.00;;;14.60;87.30;;;;;;5029919;28;20080;-69
2023/09/30 01:49:47;;;;;;;0.00;0.00;;;14.50;87.40;;;;;;5029682;28;20475;-69
2023/09/30 01:52:13;;;;;;;0.00;0.00;;;14.60;87.10;;;;;;5025989;28;20049;-69
2023/09/30 01:54:39;;;;;;;0.00;0.00;;;14.60;87.20;;;;;;5010650;28;20129;-69
2023/09/30 01:57:04;;;;;;;0.57;0.57;;;14.60;87.20;;;;;;5016788;28;20037;-69
2023/09/30 01:59:30;;;;;;;0.00;0.00;;;14.60;87.00;;;;;;5015463;28;20046;-69
2023/09/30 02:01:56;;;;;;;0.00;0.00;;;14.60;87.20;;;;;;5010506;28;20498;-69
2023/09/30 02:04:21;;;;;;;0.00;0.00;;;14.60;87.30;;;;;;5023992;28;20046;-69
2023/09/30 02:06:47;;;;;;;0.00;0.00;;;14.50;87.30;;;;;;5015929;28;20041;-69
2023/09/30 02:09:12;;;;;;;0.00;0.00;;;14.50;87.30;;;;;;5029289;28;20080;-69
2023/09/30 02:11:41;;;;;;;0.00;0.00;;;14.50;87.40;;;;;;5014864;28;20034;-69
2023/09/30 02:14:06;;;;;;;0.00;0.00;;;14.60;87.30;;;;;;5010047;28;20053;-69
2023/09/30 02:16:32;;;;;;;0.00;0.00;;;14.50;87.20;;;;;;5017392;28;20114;-69
2023/09/30 02:18:58;;;;;;;0.10;0.10;;;14.50;87.30;;;;;;5019391;28;20145;-69
2023/09/30 02:21:24;;;;;;;0.25;0.25;;;14.60;87.30;;;;;;5010005;28;20045;-69
2023/09/30 02:23:54;;;;;;;0.10;0.10;;;14.60;87.20;;;;;;5016357;28;20045;-69
2023/09/30 02:26:20;;;;;;;0.00;0.00;;;14.60;87.10;;;;;;5029108;28;20564;-69
2023/09/30 02:28:46;;;;;;;0.00;0.00;;;14.60;87.10;;;;;;5010440;28;20042;-70
2023/09/30 02:31:12;;;;;;;0.00;0.00;;;14.60;87.10;;;;;;5010258;28;20053;-68
2023/09/30 02:33:39;;;;;;;0.00;0.00;;;14.60;87.00;;;;;;5013919;28;20068;-69
2023/09/30 02:36:08;;;;;;;0.00;0.00;;;14.60;87.00;;;;;;5028714;28;20132;-69
2023/09/30 02:38:36;;;;;;;0.00;0.00;;;14.60;87.20;;;;;;5029496;28;20049;-69
2023/09/30 02:41:02;;;;;;;0.00;0.00;;;14.50;87.10;;;;;;5029786;28;20038;-69
2023/09/30 02:43:28;;;;;;;0.00;0.00;;;14.60;87.20;;;;;;5029663;28;20052;-69
2023/09/30 02:45:54;;;;;;;0.00;0.00;;;14.50;87.20;;;;;;5024368;28;20486;-68
2023/09/30 02:48:19;;;;;;;0.00;0.00;;;14.50;87.00;;;;;;5029200;28;20038;-69
2023/09/30 02:50:45;;;;;;;0.00;0.00;;;14.50;86.90;;;;;;5028851;28;20073;-69
2023/09/30 02:53:12;;;;;;;0.05;0.05;;;14.50;86.80;;;;;;5029007;28;20045;-68
2023/09/30 02:55:39;;;;;;;0.00;0.00;;;14.50;86.80;;;;;;5028686;28;20517;-69
2023/09/30 02:58:04;;;;;;;0.00;0.00;;;14.50;86.80;;;;;;5028324;28;20076;-68
2023/09/30 03:00:32;;;;;;;0.10;0.10;;;14.50;86.70;;;;;;5012221;28;20045;-69
2023/09/30 03:03:01;;;;;;;0.00;0.00;;;14.50;86.80;;;;;;5017420;28;20056;-69
2023/09/30 03:05:27;;;;;;;6.80;1.75;;;14.40;87.20;;;;;;5029055;28;20033;-69
2023/09/30 03:07:54;;;;;;;0.00;0.00;;;14.40;87.10;;;;;;5027400;28;20047;-69
2023/09/30 03:10:23;;;;;;;0.00;0.00;;;14.40;87.20;;;;;;5032574;28;20052;-69
2023/09/30 03:12:50;;;;;;;0.00;0.00;;;14.40;87.20;;;;;;5024815;28;20038;-69
2023/09/30 03:15:16;;;;;;;0.00;0.00;;;14.40;87.20;;;;;;5014657;28;20120;-69
2023/09/30 03:17:42;;;;;;;0.00;0.00;;;14.40;87.10;;;;;;5019257;28;20494;-70
2023/09/30 03:20:14;;;;;;;0.00;0.00;;;14.40;87.00;;;;;;5032757;28;20044;-70
2023/09/30 03:22:40;;;;;;;;;;;14.40;87.00;;;;;;5027761;28;20062;-69
2023/09/30 03:25:07;;;;;;;0.10;0.10;;;14.40;87.20;;;;;;5024442;28;20293;-69
2023/09/30 03:27:36;;;;;;;0.00;0.00;;;14.40;87.20;;;;;;5031186;28;20529;-69
2023/09/30 03:30:05;;;;;;;0.00;0.00;;;14.40;87.20;;;;;;5031645;28;20045;-69
2023/09/30 03:32:33;;;;;;;0.00;0.00;;;14.40;87.30;;;;;;5024264;28;20108;-70
2023/09/30 03:35:00;;;;;;;0.00;0.00;;;14.40;87.30;;;;;;5029286;28;20124;-69
2023/09/30 03:37:27;;;;;;;0.00;0.00;;;14.30;87.30;;;;;;5032662;28;20087;-68
2023/09/30 03:39:56;;;;;;;0.00;0.00;;;14.30;87.20;;;;;;5029936;28;20088;-68
2023/09/30 03:42:22;;;;;;;0.00;0.00;;;14.30;87.20;;;;;;5029690;28;20046;-68
2023/09/30 03:44:50;;;;;;;0.00;0.00;;;14.30;87.20;;;;;;5053118;28;20056;-68
2023/09/30 03:47:16;;;;;;;0.00;0.00;;;14.20;87.40;;;;;;5044756;28;20080;-69
2023/09/30 03:49:42;;;;;;;0.00;0.00;;;14.20;87.30;;;;;;5032126;28;20041;-68
2023/09/30 03:52:11;;;;;;;0.00;0.00;;;14.20;87.30;;;;;;5032687;28;20071;-69
2023/09/30 03:54:37;;;;;;;0.10;0.10;;;14.20;87.40;;;;;;5032709;28;20045;-69
2023/09/30 03:57:03;;;;;;;0.00;0.00;;;14.20;87.50;;;;;;5032638;28;20049;-69
2023/09/30 03:59:30;;;;;;;0.00;0.00;;;14.20;87.60;;;;;;5034886;28;21814;-68
2023/09/30 04:01:57;;;;;;;0.00;0.00;;;14.20;87.60;;;;;;5032549;28;20049;-68
2023/09/30 04:04:24;;;;;;;0.00;0.00;;;14.20;87.60;;;;;;5032465;28;20041;-68
2023/09/30 04:06:51;;;;;;;0.00;0.00;;;14.20;87.60;;;;;;5032449;28;20034;-69
2023/09/30 04:09:17;;;;;;;0.00;0.00;;;14.30;87.60;;;;;;5032139;28;20087;-69
2023/09/30 04:11:43;;;;;;;0.00;0.00;;;14.20;87.60;;;;;;5032141;28;20126;-69
2023/09/30 04:14:09;;;;;;;0.00;0.00;;;14.30;87.60;;;;;;5032115;28;20042;-68
2023/09/30 04:16:35;;;;;;;0.00;0.00;;;14.30;87.50;;;;;;5031971;28;20055;-69
2023/09/30 04:19:01;;;;;;;0.00;0.00;;;14.30;87.50;;;;;;5031671;28;20048;-68
2023/09/30 04:21:29;;;;;;;0.00;0.00;;;14.30;87.50;;;;;;5031159;28;20516;-68
2023/09/30 04:23:55;;;;;;;0.00;0.00;;;14.30;87.40;;;;;;5031713;28;20045;-69
2023/09/30 04:26:22;;;;;;;0.00;0.00;;;14.30;87.40;;;;;;5032125;28;20038;-68
2023/09/30 04:28:47;;;;;;;0.00;0.00;;;14.30;87.40;;;;;;5030907;28;20057;-68
2023/09/30 04:31:13;;;;;;;0.55;0.55;;;14.30;87.50;;;;;;5031118;28;20045;-68
2023/09/30 04:33:39;;;;;;;0.00;0.00;;;14.30;87.40;;;;;;5014630;28;20034;-69
2023/09/30 04:36:08;;;;;;;0.08;0.08;;;14.30;87.40;;;;;;5025882;28;20046;-69
2023/09/30 04:38:33;;;;;;;0.00;0.00;;;14.20;87.30;;;;;;5031871;28;20529;-68
2023/09/30 04:41:00;;;;;;;0.00;0.00;;;14.20;87.40;;;;;;5030125;28;20048;-69
2023/09/30 04:43:29;;;;;;;0.00;0.00;;;14.20;87.40;;;;;;5029991;28;21067;-69
2023/09/30 04:45:56;;;;;;;0.00;0.00;;;14.10;87.30;;;;;;5030941;28;20068;-68
2023/09/30 04:48:23;;;;;;;0.00;0.00;;;14.10;87.40;;;;;;5031504;28;20417;-69
2023/09/30 04:50:49;;;;;;;0.00;0.00;;;14.10;87.40;;;;;;5021998;28;20045;-69
2023/09/30 04:53:17;;;;;;;0.00;0.00;;;14.10;87.50;;;;;;5026946;28;20049;-69
2023/09/30 04:55:45;;;;;;;0.00;0.00;;;14.10;87.50;;;;;;5011744;28;20054;-68
2023/09/30 04:58:12;;;;;;;0.00;0.00;;;14.10;87.60;;;;;;5011672;28;20084;-68
2023/09/30 05:00:39;;;;;;;0.00;0.00;;;14.00;87.60;;;;;;5024885;28;20096;-68
2023/09/30 05:03:05;;;;;;;0.00;0.00;;;14.00;87.60;;;;;;5018268;28;20046;-70
2023/09/30 05:05:31;;;;;;;0.00;0.00;;;14.00;87.60;;;;;;5011282;28;20049;-69
2023/09/30 05:07:57;;;;;;;0.00;0.00;;;14.00;87.70;;;;;;5011078;28;20042;-68
2023/09/30 05:10:24;;;;;;;0.00;0.00;;;14.00;87.70;;;;;;5014438;28;20666;-67
2023/09/30 05:12:49;;;;;;;0.00;0.00;;;13.90;87.70;;;;;;5011276;28;20714;-69
2023/09/30 05:15:16;;;;;;;0.00;0.00;;;13.90;87.80;;;;;;5030640;28;20053;-68
2023/09/30 05:17:45;;;;;;;0.00;0.00;;;13.80;87.80;;;;;;5030680;28;20127;-68
2023/09/30 05:20:12;;;;;;;0.00;0.00;;;13.80;87.90;;;;;;5024622;28;20045;-69
2023/09/30 05:22:40;;;;;;;0.00;0.00;;;13.80;87.90;;;;;;5030669;28;20057;-69
2023/09/30 05:25:07;;;;;;;0.00;0.00;;;13.80;88.00;;;;;;5029264;28;20466;-69
2023/09/30 05:27:33;;;;;;;0.00;0.00;;;13.70;88.00;;;;;;5029307;28;20049;-69
2023/09/30 05:29:59;;;;;;;0.00;0.00;;;13.70;88.00;;;;;;5028846;28;20434;-70
2023/09/30 05:32:26;;;;;;;0.00;0.00;;;13.70;88.00;;;;;;5023634;28;20085;-71
2023/09/30 05:34:54;;;;;;;0.00;0.00;;;13.70;88.10;;;;;;5026132;28;20494;-70
2023/09/30 05:37:21;;;;;;;0.00;0.00;;;13.80;88.10;;;;;;5028145;28;20050;-70
2023/09/30 05:39:48;;;;;;;0.00;0.00;;;13.80;88.10;;;;;;5029210;28;20049;-70
2023/09/30 05:42:15;;;;;;;0.00;0.00;;;13.80;88.10;;;;;;5029201;28;20045;-70
2023/09/30 05:44:42;;;;;;;0.00;0.00;;;13.80;88.00;;;;;;5022513;28;20446;-70
2023/09/30 05:47:08;;;;;;;0.00;0.00;;;13.80;88.00;;;;;;5027325;28;20048;-70
2023/09/30 05:49:36;;;;;;;0.00;0.00;;;13.80;88.00;;;;;;5028869;28;20045;-70
2023/09/30 05:52:02;;;;;;;0.22;0.22;;;13.70;87.90;;;;;;5014586;28;20153;-70
2023/09/30 05:54:28;;;;;;;0.00;0.00;;;13.70;87.90;;;;;;5011154;28;20060;-70
2023/09/30 05:56:54;;;;;;;0.00;0.00;;;13.70;87.90;;;;;;5027039;28;20049;-70
2023/09/30 05:59:20;;;;;;;0.00;0.00;;;13.70;87.90;;;;;;5027616;28;20041;-70
2023/09/30 06:01:46;;;;;;;0.00;0.00;;;13.70;87.90;;;;;;5037500;28;20511;-70
2023/09/30 06:04:12;;;;;;;0.00;0.00;;;13.70;87.80;;;;;;5029125;28;20041;-69
2023/09/30 06:06:38;;;;;;;0.00;0.00;;;13.70;87.80;;;;;;5024067;28;20077;-70
2023/09/30 06:09:07;;;;;;;0.00;0.00;;;13.70;87.80;;;;;;5018686;28;20120;-69
2023/09/30 06:11:33;;;;;;;0.20;0.20;;;13.60;87.80;;;;;;5022771;28;20045;-69
2023/09/30 06:14:00;;;;;;;0.00;0.00;;;13.70;87.90;;;;;;5023188;28;20072;-69
2023/09/30 06:16:27;;;;;;;0.00;0.00;;;13.70;87.90;;;;;;5027792;28;20084;-70
2023/09/30 06:18:53;;;;;;;0.00;0.00;;;13.70;88.00;;;;;;5027892;28;20041;-69
2023/09/30 06:21:20;;;;;;;0.00;0.00;;;13.70;88.00;;;;;;5027650;28;20115;-69
2023/09/30 06:23:51;;;;;;;0.00;0.00;;;13.70;88.00;;;;;;5027267;28;20429;-69
2023/09/30 06:26:17;;;;;;;0.00;0.00;;;13.70;88.00;;;;;;5025758;28;20279;-68
2023/09/30 06:28:44;;;;;;;0.00;0.00;;;13.70;88.10;;;;;;5027880;28;20444;-68
2023/09/30 06:31:10;;;;;;;0.00;0.00;;;13.70;88.10;;;;;;5042528;28;20037;-68
2023/09/30 06:33:38;;;;;;;0.00;0.00;;;13.70;88.10;;;;;;5024302;28;20082;-67
2023/09/30 06:36:13;;;;;;;0.00;0.00;;;13.80;88.30;;;;;;5023375;28;20062;-66
2023/09/30 06:38:39;;;;;;;0.00;0.00;;;13.90;88.30;;;;;;5024424;28;20549;-66
2023/09/30 06:41:05;;;;;;;0.00;0.00;;;13.90;88.20;;;;;;5021633;28;20056;-66
2023/09/30 06:43:32;;;;;;;0.00;0.00;;;13.90;88.20;;;;;;5024205;28;20038;-66
2023/09/30 06:45:58;;;;;;;0.00;0.00;;;13.90;88.20;;;;;;5024624;28;20136;-66
2023/09/30 06:48:24;;;;;;;0.00;0.00;;;14.00;88.40;;;;;;5026086;28;20059;-65
2023/09/30 06:50:50;;;;;;;0.20;0.20;;;14.00;88.40;;;;;;5030245;28;20553;-66
2023/09/30 06:53:17;;;;;;;0.10;0.10;;;14.10;88.50;;;;;;5030021;28;20045;-65
2023/09/30 06:55:43;;;;;;;0.00;0.00;;;14.10;88.50;;;;;;5031865;28;20085;-65
2023/09/30 06:58:10;;;;;;;0.00;0.00;;;14.10;88.60;;;;;;5012807;28;20040;-66
2023/09/30 07:00:41;;;;;;;0.32;0.32;;;14.10;88.60;;;;;;5029130;28;20061;-66
2023/09/30 07:03:09;;;;;;;0.00;0.00;;;14.10;88.50;;;;;;5036884;28;20049;-66
2023/09/30 07:05:35;;;;;;;0.00;0.00;;;14.10;88.50;;;;;;5031671;28;20053;-66
2023/09/30 07:08:01;;;;;;;0.00;0.00;;;14.10;88.50;;;;;;5032081;28;20085;-68
2023/09/30 07:10:29;;;;;;;0.00;0.00;;;14.20;88.60;;;;;;5026970;28;20118;-67
2023/09/30 07:12:55;;;;;;;0.00;0.00;;;14.20;88.70;;;;;;5030648;28;20114;-67
2023/09/30 07:15:20;;;;;;;0.00;0.00;;;14.20;88.70;;;;;;5023662;28;20081;-67
2023/09/30 07:17:47;;;;;;;0.00;0.00;;;14.30;88.90;;;;;;5030878;28;20328;-67
2023/09/30 07:20:13;;;;;;;0.00;0.00;;;14.30;88.90;;;;;;5040299;28;20077;-67
2023/09/30 07:22:39;;;;;;;0.00;0.00;;;14.40;88.90;;;;;;5031632;28;20068;-67
2023/09/30 07:25:05;;;;;;;0.00;0.00;;;14.40;89.00;;;;;;5031390;28;20473;-67
2023/09/30 07:27:31;;;;;;;0.00;0.00;;;14.50;89.00;;;;;;5028526;28;20081;-68
2023/09/30 07:29:57;;;;;;;0.00;0.00;;;14.50;89.00;;;;;;5030453;28;20045;-68
2023/09/30 07:32:23;;;;;;;0.00;0.00;;;14.60;89.00;;;;;;5031126;28;20730;-68
2023/09/30 07:34:52;;;;;;;0.00;0.00;;;14.60;89.10;;;;;;5027696;28;20081;-68
2023/09/30 07:37:19;;;;;;;0.00;0.00;;;14.70;89.20;;;;;;5020868;28;20693;-67
2023/09/30 07:39:45;;;;;;;0.00;0.00;;;14.70;89.20;;;;;;5029685;28;20041;-67
2023/09/30 07:42:11;;;;;;;0.10;0.10;;;14.70;89.20;;;;;;5030748;28;20049;-68
2023/09/30 07:44:37;;;;;;;0.00;0.00;;;14.80;89.00;;;;;;5031017;28;20124;-67
2023/09/30 07:47:06;;;;;;;0.00;0.00;;;14.90;89.00;;;;;;5031071;28;20053;-68
2023/09/30 07:49:35;;;;;;;0.00;0.00;;;15.00;88.90;;;;;;5011746;28;20073;-67
2023/09/30 07:52:01;;;;;;;0.22;0.22;;;15.00;88.80;;;;;;5030816;28;20049;-67
2023/09/30 07:54:26;;;;;;;0.10;0.10;;;15.10;88.70;;;;;;5029190;28;20499;-66
2023/09/30 07:56:52;;;;;;;0.00;0.00;;;15.10;88.90;;;;;;5031668;28;20045;-67
2023/09/30 07:59:17;;;;;;;0.00;0.00;;;15.10;89.30;;;;;;5031303;28;20414;-68
2023/09/30 08:01:43;;;;;;;0.00;0.00;;;15.30;89.10;;;;;;5030994;28;20478;-68
2023/09/30 08:04:09;;;;;;;0.00;0.00;;;15.30;89.20;;;;;;5024982;28;20076;-68
2023/09/30 08:06:34;;;;;;;0.00;0.00;;;15.30;89.20;;;;;;5031223;28;20046;-68
2023/09/30 08:09:00;;;;;;;0.00;0.00;;;15.40;89.30;;;;;;5031423;28;20482;-68
2023/09/30 08:11:30;;;;;;;0.28;0.28;;;15.50;89.40;;;;;;5031522;28;20045;-68
2023/09/30 08:13:56;;;;;;;0.00;0.00;;;15.50;89.30;;;;;;5031096;28;20077;-67
2023/09/30 08:16:22;;;;;;;0.00;0.00;;;15.60;89.20;;;;;;5026840;28;20065;-68
2023/09/30 08:18:48;;;;;;;0.00;0.00;;;15.60;89.40;;;;;;5030971;28;20073;-67
2023/09/30 08:21:14;;;;;;;0.00;0.00;;;15.60;89.40;;;;;;5030861;28;20551;-68
2023/09/30 08:23:39;;;;;;;0.00;0.00;;;15.70;89.30;;;;;;5030705;28;20132;-68
2023/09/30 08:26:05;;;;;;;0.00;0.00;;;15.70;89.50;;;;;;5030841;28;20087;-69
2023/09/30 08:28:32;;;;;;;0.00;0.00;;;15.80;89.30;;;;;;5030703;28;20103;-69
2023/09/30 08:31:05;;;;;;;0.00;0.00;;;15.80;89.20;;;;;;5027189;28;20493;-68
2023/09/30 08:33:31;;;;;;;0.10;0.10;;;15.90;89.40;;;;;;5011226;28;20121;-68
2023/09/30 08:36:06;;;;;;;0.00;0.00;;;16.00;89.40;;;;;;5011479;28;20053;-67
2023/09/30 08:38:33;;;;;;;0.10;0.10;;;16.00;89.30;;;;;;5017200;28;20084;-70
2023/09/30 08:40:59;;;;;;;0.00;0.00;;;16.10;89.70;;;;;;5029298;28;20540;-68
2023/09/30 08:43:30;;;;;;;0.10;0.10;;;16.20;89.40;;;;;;5030594;28;20045;-68
2023/09/30 08:45:56;;;;;;;0.00;0.00;;;16.20;89.10;;;;;;5030759;28;20055;-68
2023/09/30 08:48:23;;;;;;;0.20;0.20;;;16.20;88.90;;;;;;5030594;28;20049;-68
2023/09/30 08:50:50;;;;;;;0.03;0.03;;;16.30;89.00;;;;;;5030708;28;20042;-68
2023/09/30 08:53:17;;;;;;;0.00;0.00;;;16.40;88.80;;;;;;5030231;28;20482;-68
2023/09/30 08:55:45;;;;;;;0.00;0.00;;;16.40;88.60;;;;;;5030676;28;20087;-68
2023/09/30 08:58:12;;;;;;;0.00;0.00;;;16.50;88.30;;;;;;5030291;28;20042;-68
2023/09/30 09:00:42;;;;;;;0.00;0.00;;;16.50;88.20;;;;;;5030548;28;20565;-68
2023/09/30 09:03:08;;;;;;;0.00;0.00;;;16.50;88.00;;;;;;5028960;28;20090;-69
2023/09/30 09:05:34;;;;;;;0.00;0.00;;;16.60;87.80;;;;;;5028660;28;20497;-67
2023/09/30 09:08:00;;;;;;;0.00;0.00;;;16.60;87.80;;;;;;5020454;28;20069;-68
2023/09/30 09:10:26;;;;;;;0.13;0.13;;;16.70;87.60;;;;;;5017368;28;20046;-66
2023/09/30 09:12:58;;;;;;;0.00;0.00;;;16.70;87.30;;;;;;5019953;28;20179;-68
2023/09/30 09:15:26;;;;;;;0.00;0.00;;;16.80;87.20;;;;;;5024395;28;20096;-67
2023/09/30 09:17:52;;;;;;;0.00;0.00;;;16.90;87.00;;;;;;5028647;28;20155;-67
2023/09/30 09:20:20;;;;;;;0.00;0.00;;;17.00;86.70;;;;;;5028399;28;20043;-67
2023/09/30 09:22:48;;;;;;;0.00;0.00;;;17.00;86.60;;;;;;5027435;28;20052;-67
2023/09/30 09:25:13;;;;;;;0.20;0.17;;;17.10;86.40;;;;;;5027014;28;20037;-67
2023/09/30 09:27:39;;;;;;;0.00;0.00;;;17.20;86.20;;;;;;5027860;28;20053;-67
2023/09/30 09:30:14;;;;;;;0.00;0.00;;;17.30;85.80;;;;;;5027959;28;20103;-66
2023/09/30 09:33:04;;;;;;;0.00;0.00;;;17.40;85.60;;;;;;5028496;28;20492;-66
2023/09/30 09:35:32;;;;;;;0.00;0.00;;;17.50;85.30;;;;;;5029483;28;20155;-67
2023/09/30 09:38:01;;;;;;;0.00;0.00;;;17.50;83.60;;;;;;5027827;28;20077;-68
2023/09/30 09:40:29;;;;;;;0.00;0.00;;;17.60;82.10;;;;;;5028694;28;20047;-68
2023/09/30 09:42:56;;;;;;;0.00;0.00;;;17.60;81.10;;;;;;5032121;28;20042;-67
2023/09/30 09:45:26;;;;;;;0.00;0.00;;;17.80;82.20;;;;;;5023352;28;20044;-67
2023/09/30 09:47:54;;;;;;;0.00;0.00;;;17.90;82.20;;;;;;5029043;28;20084;-68
2023/09/30 09:50:21;;;;;;;0.00;0.00;;;17.90;82.00;;;;;;5028931;28;20053;-67
2023/09/30 09:52:58;;;;;;;0.20;0.20;;;18.10;81.80;;;;;;5028623;28;20167;-68
2023/09/30 09:55:25;;;;;;;0.00;0.00;;;18.10;82.10;;;;;;5044860;28;20049;-67
2023/09/30 09:57:51;;;;;;;0.00;0.00;;;18.10;80.80;;;;;;5044563;28;20038;-67
2023/09/30 10:00:19;;;;;;;0.00;0.00;;;18.10;80.50;;;;;;5029504;28;20046;-67
2023/09/30 10:02:48;;;;;;;0.00;0.00;;;18.20;80.90;;;;;;5029411;28;20037;-67
2023/09/30 10:05:15;;;;;;;0.00;0.00;;;18.10;81.20;;;;;;5029011;28;20577;-67
2023/09/30 10:08:02;;;;;;;1.55;0.80;;;18.10;81.10;;;;;;5044134;28;20124;-69
2023/09/30 10:10:30;;;;;;;0.10;0.10;;;17.90;78.90;;;;;;5027553;28;20104;-69
2023/09/30 10:12:55;;;;;;;0.30;0.30;;;17.90;79.70;;;;;;5029188;28;20477;-67
2023/09/30 10:15:34;;;;;;;0.38;0.38;;;17.80;80.30;;;;;;5027729;28;20069;-71
2023/09/30 10:18:06;;;;;;;0.05;0.05;;;17.60;80.20;;;;;;5031281;28;20049;-68
2023/09/30 10:20:37;;;;;;;0.00;0.00;;;17.40;79.90;;;;;;5023717;28;20045;-66
2023/09/30 10:23:21;;;;;;;0.00;0.00;;;17.30;80.40;;;;;;5023937;28;20060;-67
2023/09/30 10:25:48;;;;;;;0.38;0.35;;;17.20;80.80;;;;;;5020402;28;20512;-70
2023/09/30 10:28:33;;;;;;;0.00;0.00;;;17.20;81.40;;;;;;5020578;28;20053;-68
2023/09/30 10:31:21;;;;;;;0.00;0.00;;;17.30;81.70;;;;;;5021925;28;20505;-67
2023/09/30 10:34:05;;;;;;;0.00;0.00;;;17.30;81.80;;;;;;5012241;28;20095;-68
2023/09/30 10:36:32;;;;;;;0.00;0.00;;;17.30;81.60;;;;;;5023622;28;20084;-67
2023/09/30 10:38:59;;;;;;;0.32;0.32;;;17.30;81.80;;;;;;5024243;28;20580;-67
2023/09/30 10:41:50;;;;;;;0.00;0.00;;;17.30;81.20;;;;;;5022743;28;20049;-68
2023/09/30 10:44:29;;;;;;;0.63;0.63;;;17.30;80.60;;;;;;5021879;28;20056;-68
2023/09/30 10:47:03;;;;;;;0.25;0.25;;;17.30;80.80;;;;;;5023445;28;20045;-68
2023/09/30 10:49:28;;;;;;;0.00;0.00;;;17.40;80.40;;;;;;5025675;28;20080;-67
2023/09/30 10:51:56;;;;;;;0.00;0.00;;;17.30;79.00;;;;;;5012867;28;20514;-68
2023/09/30 10:54:23;;;;;;;0.28;0.28;;;17.30;79.30;;;;;;5023365;28;20064;-68
2023/09/30 10:56:49;;;;;;;0.00;0.00;;;17.30;79.40;;;;;;5023667;28;20095;-67
2023/09/30 10:59:23;;;;;;;0.05;0.05;;;17.40;78.60;;;;;;5024847;28;20049;-68
2023/09/30 11:01:49;;;;;;;0.00;0.00;;;17.50;78.60;;;;;;5020737;28;20050;-69
2023/09/30 11:04:15;;;;;;;0.28;0.28;;;17.60;77.30;;;;;;5024385;28;20068;-67
2023/09/30 11:06:42;;;;;;;0.00;0.00;;;17.70;76.20;;;;;;5025476;28;20049;-68
2023/09/30 11:09:13;;;;;;;0.10;0.10;;;17.60;75.20;;;;;;5022472;28;20498;-68
2023/09/30 11:11:49;;;;;;;0.73;0.32;;;17.60;74.00;;;;;;5022265;28;20124;-69
2023/09/30 11:14:31;;;;;;;0.00;0.00;;;17.70;75.60;;;;;;5004615;28;20048;-68
2023/09/30 11:17:01;;;;;;;0.00;0.00;;;17.80;75.00;;;;;;5024841;28;20762;-67
2023/09/30 11:19:45;;;;;;;0.00;0.00;;;17.90;75.10;;;;;;5023480;28;20494;-67
2023/09/30 11:22:11;;;;;;;0.00;0.00;;;17.90;74.40;;;;;;5023557;28;20131;-66
2023/09/30 11:24:37;;;;;;;0.00;0.00;;;18.00;73.80;;;;;;5028955;28;20057;-67
2023/09/30 11:27:04;;;;;;;0.00;0.00;;;18.10;73.20;;;;;;5023744;28;20417;-68
2023/09/30 11:29:30;;;;;;;0.00;0.00;;;18.10;72.70;;;;;;5024276;28;20075;-68
2023/09/30 11:31:55;;;;;;;0.00;0.00;;;18.20;71.90;;;;;;5035104;28;20049;-68
2023/09/30 11:34:35;;;;;;;0.00;0.00;;;18.30;71.90;;;;;;5030759;28;20068;-67
2023/09/30 11:37:02;;;;;;;0.00;0.00;;;18.20;69.30;;;;;;5031847;28;20382;-68
2023/09/30 11:39:29;;;;;;;0.00;0.00;;;18.30;70.30;;;;;;5031814;28;20103;-69
2023/09/30 11:41:56;;;;;;;0.00;0.00;;;18.30;70.30;;;;;;5031230;28;20120;-68
2023/09/30 11:44:26;;;;;;;0.25;0.22;;;18.40;70.40;;;;;;5016739;28;20049;-69
2023/09/30 11:47:04;;;;;;;0.00;0.00;;;18.50;69.90;;;;;;5021617;28;20037;-69
2023/09/30 11:49:40;;;;;;;0.00;0.00;;;18.50;70.70;;;;;;5009757;28;20689;-68
2023/09/30 11:52:13;;;;;;;0.15;0.15;;;18.60;69.90;;;;;;5034232;28;20057;-69
2023/09/30 11:54:44;;;;;;;0.00;0.00;;;18.60;69.50;;;;;;5024725;28;20069;-68
2023/09/30 11:57:17;;;;;;;7.18;1.20;;;18.60;66.80;;;;;;5026342;28;20057;-69
2023/09/30 11:59:45;;;;;;;0.00;0.00;;;18.70;67.40;;;;;;5027499;28;20052;-68
2023/09/30 12:02:15;;;;;;;0.00;0.00;;;18.60;66.30;;;;;;5027847;28;20794;-69
2023/09/30 12:04:44;;;;;;;0.00;0.00;;;18.70;68.80;;;;;;5028487;28;20049;-69
2023/09/30 12:07:11;;;;;;;0.00;0.00;;;18.70;67.60;;;;;;5028869;28;20103;-69
2023/09/30 12:09:37;;;;;;;0.00;0.00;;;18.70;66.90;;;;;;5025990;28;20560;-68
2023/09/30 12:12:04;;;;;;;0.00;0.00;;;18.70;68.70;;;;;;5026117;28;20440;-71
2023/09/30 12:14:31;;;;;;;0.00;0.00;;;18.80;69.10;;;;;;5026170;28;20045;-69
2023/09/30 12:16:57;;;;;;;0.10;0.10;;;18.80;69.60;;;;;;5024827;28;20168;-68
2023/09/30 12:19:22;;;;;;;0.00;0.00;;;18.70;67.70;;;;;;5025497;28;20041;-68
2023/09/30 12:21:48;;;;;;;0.00;0.00;;;18.70;67.80;;;;;;5025836;28;20057;-68
2023/09/30 12:24:19;;;;;;;0.00;0.00;;;18.80;68.60;;;;;;5028020;28;20057;-69
2023/09/30 12:26:49;;;;;;;0.00;0.00;;;18.80;68.10;;;;;;5023701;28;20260;-69
2023/09/30 12:29:19;;;;;;;0.00;0.00;;;18.80;67.60;;;;;;5023852;28;20069;-69
2023/09/30 12:31:45;;;;;;;0.00;0.00;;;18.80;65.70;;;;;;5028166;28;20057;-68
2023/09/30 12:34:12;;;;;;;0.20;0.20;;;18.70;66.00;;;;;;5027573;28;20090;-69
2023/09/30 12:36:42;;;;;;;14.07;1.65;;;18.80;67.80;;;;;;5027629;28;20491;-69
2023/09/30 12:39:11;;;;;;;0.00;0.00;;;18.80;67.40;;;;;;5028045;28;20095;-69
2023/09/30 12:41:41;;;;;;;0.03;0.03;;;18.90;69.00;;;;;;5027158;28;20064;-69
2023/09/30 12:44:07;;;;;;;0.00;0.00;;;19.00;68.50;;;;;;5026884;28;20550;-69
2023/09/30 12:46:34;;;;;;;0.00;0.00;;;19.00;68.30;;;;;;5027000;28;20540;-69
2023/09/30 12:49:04;;;;;;;1.58;1.05;;;19.00;67.80;;;;;;5015842;28;20131;-68